createdAt,value
2022-11-22T00:01:24.672Z,8.28
2022-11-22T00:03:54.350Z,8.28
2022-11-22T00:06:22.630Z,8.15
2022-11-22T00:08:51.173Z,8.16
2022-11-22T00:11:19.570Z,8.00
2022-11-22T00:13:49.266Z,8.18
2022-11-22T00:16:17.620Z,8.16
2022-11-22T00:18:45.861Z,7.90
2022-11-22T00:21:16.020Z,7.93
2022-11-22T00:23:45.312Z,7.97
2022-11-22T00:26:13.845Z,7.93
2022-11-22T00:28:42.368Z,7.79
2022-11-22T00:31:10.614Z,7.82
2022-11-22T00:33:38.793Z,7.88
2022-11-22T00:36:08.380Z,7.79
2022-11-22T00:38:38.623Z,7.81
2022-11-22T00:41:06.924Z,7.68
2022-11-22T00:43:35.767Z,7.77
2022-11-22T00:46:05.319Z,7.69
2022-11-22T00:48:33.649Z,7.70
2022-11-22T00:51:02.371Z,7.80
2022-11-22T00:53:30.598Z,7.79
2022-11-22T00:56:00.202Z,7.72
2022-11-22T00:58:28.638Z,7.75
2022-11-22T01:00:57.225Z,7.74
2022-11-22T01:03:26.237Z,7.70
2022-11-22T01:05:54.535Z,7.62
2022-11-22T01:08:22.932Z,7.58
2022-11-22T01:10:57.615Z,7.55
2022-11-22T01:13:28.567Z,7.80
2022-11-22T01:16:01.522Z,7.76
2022-11-22T01:18:30.060Z,7.55
2022-11-22T01:20:58.245Z,7.54
2022-11-22T01:23:27.525Z,7.48
2022-11-22T01:25:56.739Z,7.37
2022-11-22T01:28:26.635Z,7.33
2022-11-22T01:30:55.791Z,7.51
2022-11-22T01:33:24.435Z,7.42
2022-11-22T01:35:54.229Z,7.44
2022-11-22T01:38:22.513Z,7.40
2022-11-22T01:40:50.953Z,7.52
2022-11-22T01:43:22.549Z,7.41
2022-11-22T01:45:55.086Z,7.58
2022-11-22T01:48:37.324Z,7.32
2022-11-22T01:51:15.484Z,7.40
2022-11-22T01:53:44.439Z,7.32
2022-11-22T01:56:18.114Z,7.49
2022-11-22T01:58:51.141Z,7.44
2022-11-22T02:01:21.664Z,7.45
2022-11-22T02:03:52.505Z,7.40
2022-11-22T02:06:22.694Z,7.37
2022-11-22T02:09:00.711Z,7.33
2022-11-22T02:11:34.112Z,7.48
2022-11-22T02:14:03.600Z,7.27
2022-11-22T02:16:36.025Z,7.34
2022-11-22T02:19:05.404Z,7.19
2022-11-22T02:21:34.038Z,7.26
2022-11-22T02:24:09.535Z,7.36
2022-11-22T02:26:39.227Z,7.30
2022-11-22T02:29:09.650Z,7.22
2022-11-22T02:31:43.157Z,7.33
2022-11-22T02:34:11.906Z,7.28
2022-11-22T02:36:46.755Z,7.28
2022-11-22T02:39:19.194Z,7.24
2022-11-22T02:41:50.026Z,7.39
2022-11-22T02:44:19.140Z,7.33
2022-11-22T02:46:53.122Z,7.34
2022-11-22T02:49:25.152Z,7.38
2022-11-22T02:51:55.879Z,7.35
2022-11-22T02:54:24.366Z,7.34
2022-11-22T02:56:53.972Z,7.25
2022-11-22T02:59:23.311Z,7.18
2022-11-22T03:01:53.189Z,7.17
2022-11-22T03:04:30.856Z,7.03
2022-11-22T03:07:00.949Z,7.18
2022-11-22T03:09:30.296Z,7.08
2022-11-22T03:12:00.656Z,7.28
2022-11-22T03:14:29.238Z,7.27
2022-11-22T03:16:57.470Z,6.99
2022-11-22T03:19:26.076Z,7.01
2022-11-22T03:21:54.327Z,7.27
2022-11-22T03:24:24.043Z,7.14
2022-11-22T03:26:52.372Z,7.02
2022-11-22T03:29:22.042Z,7.21
2022-11-22T03:31:50.228Z,7.02
2022-11-22T03:34:18.843Z,6.92
2022-11-22T03:36:47.190Z,6.85
2022-11-22T03:39:16.832Z,7.09
2022-11-22T03:41:46.316Z,7.08
2022-11-22T03:44:14.601Z,7.09
2022-11-22T03:46:44.161Z,7.11
2022-11-22T03:49:13.288Z,6.98
2022-11-22T03:51:41.842Z,7.21
2022-11-22T03:54:10.296Z,7.25
2022-11-22T03:56:38.515Z,7.15
2022-11-22T03:59:06.879Z,7.27
2022-11-22T04:01:35.213Z,7.03
2022-11-22T04:04:04.857Z,7.03
2022-11-22T04:06:33.259Z,7.14
2022-11-22T04:09:01.529Z,6.95
2022-11-22T04:11:30.152Z,7.11
2022-11-22T04:14:16.120Z,6.97
2022-11-22T04:16:45.428Z,6.90
2022-11-22T04:19:16.175Z,6.90
2022-11-22T04:21:43.588Z,7.06
2022-11-22T04:24:30.717Z,7.07
2022-11-22T04:26:59.597Z,6.80
2022-11-22T04:29:29.112Z,6.92
2022-11-22T04:32:15.331Z,6.90
2022-11-22T04:34:44.881Z,6.70
2022-11-22T04:37:13.196Z,6.67
2022-11-22T04:39:41.488Z,6.70
2022-11-22T04:42:28.051Z,6.73
2022-11-22T04:44:56.486Z,6.77
2022-11-22T04:47:46.069Z,6.95
2022-11-22T04:50:36.513Z,6.76
2022-11-22T04:53:04.728Z,6.72
2022-11-22T04:55:32.905Z,6.78
2022-11-22T04:58:01.085Z,6.72
2022-11-22T05:00:30.336Z,6.66
2022-11-22T05:03:00.085Z,6.91
2022-11-22T05:05:29.974Z,6.81
2022-11-22T05:08:00.100Z,6.93
2022-11-22T05:10:28.604Z,6.85
2022-11-22T05:12:57.097Z,6.83
2022-11-22T05:15:25.548Z,6.60
2022-11-22T05:17:53.901Z,6.69
2022-11-22T05:20:23.215Z,6.58
2022-11-22T05:23:10.471Z,6.72
2022-11-22T05:25:39.194Z,6.82
2022-11-22T05:28:07.397Z,6.81
2022-11-22T05:30:35.551Z,6.83
2022-11-22T05:33:03.807Z,6.91
2022-11-22T05:35:32.596Z,6.70
2022-11-22T05:38:02.407Z,6.63
2022-11-22T05:40:30.654Z,6.48
2022-11-22T05:43:00.681Z,6.70
2022-11-22T05:45:29.111Z,6.64
2022-11-22T05:47:57.907Z,6.63
2022-11-22T05:50:26.925Z,6.82
2022-11-22T05:53:03.776Z,6.48
2022-11-22T05:55:32.833Z,6.73
2022-11-22T05:58:02.203Z,6.75
2022-11-22T06:00:30.985Z,6.54
2022-11-22T06:03:02.492Z,6.71
2022-11-22T06:05:32.091Z,6.59
2022-11-22T06:08:03.036Z,6.42
2022-11-22T06:10:34.409Z,6.57
2022-11-22T06:13:02.651Z,6.71
2022-11-22T06:15:31.908Z,6.50
2022-11-22T06:18:01.164Z,6.46
2022-11-22T06:20:29.434Z,6.50
2022-11-22T06:22:59.653Z,6.58
2022-11-22T06:25:30.541Z,6.58
2022-11-22T06:28:00.516Z,6.41
2022-11-22T06:30:29.528Z,6.18
2022-11-22T06:32:58.905Z,6.46
2022-11-22T06:35:27.139Z,6.35
2022-11-22T06:38:00.538Z,6.32
2022-11-22T06:40:30.894Z,6.23
2022-11-22T06:42:59.061Z,6.36
2022-11-22T06:45:27.690Z,6.44
2022-11-22T06:47:56.023Z,6.49
2022-11-22T06:50:24.329Z,6.58
2022-11-22T06:52:52.671Z,6.50
2022-11-22T06:55:48.358Z,6.48
2022-11-22T06:58:10.951Z,6.40
2022-11-22T07:00:39.227Z,6.49
2022-11-22T07:03:07.717Z,6.54
2022-11-22T07:05:36.141Z,6.42
2022-11-22T07:08:10.488Z,6.33
2022-11-22T07:10:41.722Z,6.28
2022-11-22T07:13:11.384Z,6.42
2022-11-22T07:15:39.545Z,6.38
2022-11-22T07:18:07.838Z,6.28
2022-11-22T07:20:38.085Z,6.33
2022-11-22T07:23:07.574Z,6.37
2022-11-22T07:25:36.373Z,6.19
2022-11-22T07:28:04.983Z,6.08
2022-11-22T07:30:34.619Z,6.28
2022-11-22T07:33:02.857Z,6.29
2022-11-22T07:35:31.480Z,6.31
2022-11-22T07:37:59.786Z,6.36
2022-11-22T07:40:28.136Z,6.35
2022-11-22T07:42:58.569Z,6.46
2022-11-22T07:45:27.592Z,6.35
2022-11-22T07:47:59.861Z,6.43
2022-11-22T07:50:28.262Z,6.49
2022-11-22T07:52:57.912Z,6.07
2022-11-22T07:55:26.917Z,6.33
2022-11-22T07:57:55.769Z,6.32
2022-11-22T08:00:24.211Z,6.46
2022-11-22T08:02:52.535Z,6.27
2022-11-22T08:05:22.790Z,6.66
2022-11-22T08:07:53.163Z,6.72
2022-11-22T08:10:23.330Z,6.78
2022-11-22T08:12:51.745Z,6.69
2022-11-22T08:15:20.318Z,6.67
2022-11-22T08:17:48.459Z,6.72
2022-11-22T08:20:16.774Z,6.82
2022-11-22T08:22:47.199Z,6.90
2022-11-22T08:25:16.105Z,6.90
2022-11-22T08:27:45.289Z,7.13
2022-11-22T08:30:15.108Z,7.02
2022-11-22T08:32:44.222Z,6.98
2022-11-22T08:35:12.951Z,6.96
2022-11-22T08:37:41.465Z,7.33
2022-11-22T08:40:13.340Z,7.33
2022-11-22T08:42:41.748Z,7.38
2022-11-22T08:45:11.430Z,7.49
2022-11-22T08:47:40.064Z,7.60
2022-11-22T08:50:09.967Z,7.50
2022-11-22T08:52:38.512Z,7.69
2022-11-22T08:55:08.537Z,7.53
2022-11-22T08:57:38.047Z,7.61
2022-11-22T09:00:09.232Z,7.78
2022-11-22T09:02:38.115Z,7.47
2022-11-22T09:05:13.810Z,7.65
2022-11-22T09:10:30.724Z,7.83
2022-11-22T09:13:00.610Z,7.79
2022-11-22T09:15:28.874Z,7.90
2022-11-22T09:18:02.730Z,7.79
2022-11-22T09:20:31.548Z,7.79
2022-11-22T09:23:02.085Z,8.08
2022-11-22T09:25:30.701Z,7.90
2022-11-22T09:28:03.346Z,8.00
2022-11-22T09:30:32.125Z,8.04
2022-11-22T09:33:01.909Z,8.03
2022-11-22T09:35:30.571Z,7.98
2022-11-22T09:37:58.939Z,7.87
2022-11-22T09:40:27.248Z,7.95
2022-11-22T09:43:21.311Z,7.87
2022-11-22T09:46:16.718Z,7.88
2022-11-22T09:49:11.092Z,8.03
2022-11-22T09:51:44.857Z,8.31
2022-11-22T09:54:20.893Z,8.28
2022-11-22T09:56:53.939Z,8.72
2022-11-22T09:59:29.463Z,8.25
2022-11-22T10:02:17.545Z,8.46
2022-11-22T10:04:53.897Z,8.23
2022-11-22T10:07:30.711Z,8.11
2022-11-22T10:10:06.558Z,8.14
2022-11-22T10:12:42.140Z,7.97
2022-11-22T10:15:23.826Z,8.26
2022-11-22T10:17:56.408Z,8.26
2022-11-22T10:20:27.685Z,8.28
2022-11-22T10:22:58.840Z,8.42
2022-11-22T10:25:39.328Z,8.57
2022-11-22T10:28:33.489Z,8.42
2022-11-22T10:31:10.111Z,8.63
2022-11-22T10:33:47.827Z,8.58
2022-11-22T10:36:32.135Z,8.52
2022-11-22T10:39:22.178Z,8.47
2022-11-22T10:42:20.137Z,8.65
2022-11-22T10:44:55.488Z,8.65
2022-11-22T10:47:46.779Z,8.64
2022-11-22T10:50:21.530Z,8.88
2022-11-22T10:53:01.943Z,8.72
2022-11-22T10:56:00.059Z,8.64
2022-11-22T10:58:56.155Z,8.71
2022-11-22T11:01:37.023Z,8.53
2022-11-22T11:04:09.440Z,8.55
2022-11-22T11:07:13.049Z,8.62
2022-11-22T11:12:40.022Z,8.56
2022-11-22T11:15:21.542Z,8.92
2022-11-22T11:18:00.950Z,8.81
2022-11-22T11:20:35.633Z,8.94
2022-11-22T11:23:14.686Z,8.63
2022-11-22T11:25:46.493Z,8.51
2022-11-22T11:28:20.645Z,8.66
2022-11-22T11:30:52.094Z,8.69
2022-11-22T11:33:27.694Z,8.98
2022-11-22T11:36:08.637Z,9.29
2022-11-22T11:38:49.310Z,9.31
2022-11-22T11:41:26.061Z,9.14
2022-11-22T11:43:56.521Z,9.11
2022-11-22T11:46:26.451Z,9.43
2022-11-22T11:48:56.267Z,8.95
2022-11-22T11:51:38.390Z,9.14
2022-11-22T11:54:12.691Z,9.27
2022-11-22T11:56:48.970Z,9.28
2022-11-22T11:59:20.114Z,9.06
2022-11-22T12:01:56.315Z,9.18
2022-11-22T12:04:30.255Z,8.97
2022-11-22T12:07:05.124Z,9.05
2022-11-22T12:09:38.448Z,9.41
2022-11-22T12:12:32.885Z,9.15
2022-11-22T12:15:12.180Z,9.29
2022-11-22T12:17:58.258Z,9.57
2022-11-22T12:20:35.272Z,9.72
2022-11-22T12:23:20.096Z,9.62
2022-11-22T12:25:51.404Z,9.28
2022-11-22T12:28:22.402Z,9.20
2022-11-22T12:31:00.617Z,9.02
2022-11-22T12:33:39.240Z,9.40
2022-11-22T12:36:20.191Z,8.94
2022-11-22T12:38:52.455Z,9.04
2022-11-22T12:41:25.192Z,9.28
2022-11-22T12:43:58.382Z,9.12
2022-11-22T12:46:32.648Z,9.29
2022-11-22T12:49:08.387Z,9.11
2022-11-22T12:51:46.315Z,9.29
2022-11-22T12:54:22.004Z,9.73
2022-11-22T12:56:54.723Z,9.76
2022-11-22T12:59:30.477Z,10.17
2022-11-22T13:02:12.345Z,9.78
2022-11-22T13:04:46.641Z,10.07
2022-11-22T13:07:19.526Z,10.33
2022-11-22T13:09:57.771Z,10.39
2022-11-22T13:12:32.750Z,10.31
2022-11-22T13:15:02.392Z,10.26
2022-11-22T13:17:35.847Z,10.89
2022-11-22T13:20:11.050Z,10.68
2022-11-22T13:22:55.244Z,10.62
2022-11-22T13:25:41.693Z,10.77
2022-11-22T13:28:15.353Z,10.22
2022-11-22T13:31:09.352Z,9.98
2022-11-22T13:33:40.990Z,9.69
2022-11-22T13:36:49.527Z,9.57
2022-11-22T13:39:25.873Z,9.49
2022-11-22T13:42:06.430Z,9.79
2022-11-22T13:44:51.470Z,9.38
2022-11-22T13:47:42.281Z,9.71
2022-11-22T13:51:02.954Z,9.81
2022-11-22T13:53:36.120Z,9.97
2022-11-22T13:57:01.553Z,9.73
2022-11-22T13:59:30.209Z,9.65
2022-11-22T14:02:02.757Z,9.55
2022-11-22T14:04:44.491Z,9.41
2022-11-22T14:07:38.404Z,9.35
2022-11-22T14:10:33.458Z,9.64
2022-11-22T14:13:31.962Z,9.52
2022-11-22T14:16:28.902Z,9.46
2022-11-22T14:19:19.444Z,9.53
2022-11-22T14:22:21.379Z,9.52
2022-11-22T14:25:17.958Z,9.49
2022-11-22T14:27:53.324Z,9.45
2022-11-22T14:30:25.351Z,9.30
2022-11-22T14:33:04.299Z,9.50
2022-11-22T14:35:36.161Z,9.30
2022-11-22T14:38:40.271Z,9.57
2022-11-22T14:41:45.321Z,9.36
2022-11-22T14:44:20.964Z,9.13
2022-11-22T14:47:03.637Z,9.16
2022-11-22T14:49:43.783Z,9.26
2022-11-22T14:52:23.517Z,9.07
2022-11-22T14:54:57.890Z,9.07
2022-11-22T14:57:29.729Z,8.95
2022-11-22T15:00:15.205Z,8.89
2022-11-22T15:03:20.585Z,8.88
2022-11-22T15:09:17.240Z,8.86
2022-11-22T15:09:39.325Z,8.79
2022-11-22T15:12:51.291Z,8.56
2022-11-22T15:57:33.836Z,8.61
2022-11-22T16:00:03.354Z,8.59
2022-11-22T16:02:40.047Z,8.07
2022-11-22T16:06:10.920Z,8.32
2022-11-22T16:08:01.722Z,8.48
2022-11-22T16:10:39.080Z,8.37
2022-11-22T16:13:22.649Z,8.06
2022-11-22T16:16:18.528Z,8.31
2022-11-22T16:18:48.433Z,8.25
2022-11-22T16:21:31.391Z,8.31
2022-11-22T16:24:17.487Z,8.15
2022-11-22T16:26:57.053Z,8.32
2022-11-22T16:29:32.033Z,8.29
2022-11-22T16:32:03.507Z,8.29
2022-11-22T16:34:32.745Z,8.28
2022-11-22T16:37:01.439Z,8.59
2022-11-22T16:39:31.371Z,8.47
2022-11-22T16:41:59.832Z,8.57
2022-11-22T16:44:28.291Z,8.54
2022-11-22T16:46:56.789Z,8.72
2022-11-22T16:49:24.902Z,8.78
2022-11-22T16:51:53.202Z,8.82
2022-11-22T16:54:23.902Z,8.68
2022-11-22T16:56:54.600Z,8.71
2022-11-22T16:59:23.027Z,8.48
2022-11-22T17:01:51.400Z,8.63
2022-11-22T17:04:25.188Z,8.58
2022-11-22T17:06:53.903Z,8.67
2022-11-22T17:09:23.136Z,8.59
2022-11-22T17:11:53.084Z,8.78
2022-11-22T17:14:21.458Z,8.65
2022-11-22T17:16:49.950Z,8.81
2022-11-22T17:22:08.118Z,8.82
2022-11-22T17:24:37.048Z,9.11
2022-11-22T17:27:06.785Z,8.82
2022-11-22T17:29:49.744Z,8.72
2022-11-22T17:32:18.883Z,8.86
2022-11-22T17:34:47.249Z,8.75
2022-11-22T17:37:15.655Z,9.11
2022-11-22T17:39:44.345Z,8.92
2022-11-22T17:42:15.214Z,9.22
2022-11-22T17:44:43.408Z,9.12
2022-11-22T17:47:11.725Z,9.37
2022-11-22T17:49:39.947Z,9.32
2022-11-22T17:52:08.140Z,9.38
2022-11-22T17:54:38.750Z,9.38
2022-11-22T17:57:08.047Z,9.11
2022-11-22T17:59:37.730Z,9.11
2022-11-22T18:02:05.980Z,9.10
2022-11-22T18:04:34.575Z,9.31
2022-11-22T18:07:02.980Z,9.55
2022-11-22T18:09:32.100Z,9.53
2022-11-22T18:12:00.503Z,9.56
2022-11-22T18:14:30.686Z,9.57
2022-11-22T18:17:00.614Z,9.55
2022-11-22T18:19:29.246Z,9.41
2022-11-22T18:21:57.740Z,9.51
2022-11-22T18:24:25.940Z,9.40
2022-11-22T18:26:54.121Z,9.41
2022-11-22T18:32:12.239Z,9.63
2022-11-22T18:34:41.431Z,9.59
2022-11-22T18:37:10.957Z,9.43
2022-11-22T18:39:40.309Z,9.61
2022-11-22T18:42:12.945Z,9.76
2022-11-22T18:44:41.467Z,9.44
2022-11-22T18:47:11.126Z,9.57
2022-11-22T18:49:39.407Z,9.49
2022-11-22T18:52:09.693Z,9.49
2022-11-22T18:54:40.059Z,9.41
2022-11-22T18:57:09.487Z,9.46
2022-11-22T18:59:38.682Z,9.36
2022-11-22T19:02:07.391Z,9.29
2022-11-22T19:04:37.131Z,9.42
2022-11-22T19:07:05.693Z,9.48
2022-11-22T19:09:35.162Z,9.62
2022-11-22T19:12:03.458Z,9.26
2022-11-22T19:14:32.103Z,9.70
2022-11-22T19:17:00.533Z,9.39
2022-11-22T19:19:32.071Z,9.52
2022-11-22T19:22:02.417Z,9.58
2022-11-22T19:24:32.568Z,9.52
2022-11-22T19:27:01.003Z,9.62
2022-11-22T19:29:30.767Z,9.49
2022-11-22T19:31:59.201Z,9.48
2022-11-22T19:34:27.576Z,9.21
2022-11-22T19:36:56.327Z,9.35
2022-11-22T19:39:26.997Z,9.19
2022-11-22T19:41:55.248Z,9.16
2022-11-22T19:44:23.453Z,9.39
2022-11-22T19:46:51.952Z,9.28
2022-11-22T19:49:20.402Z,9.12
2022-11-22T19:51:48.703Z,9.15
2022-11-22T19:54:16.825Z,9.15
2022-11-22T19:56:46.682Z,9.44
2022-11-22T19:59:17.075Z,9.40
2022-11-22T20:01:45.713Z,9.13
2022-11-22T20:04:15.192Z,9.25
2022-11-22T20:06:48.611Z,9.12
2022-11-22T20:09:18.338Z,9.20
2022-11-22T20:11:47.960Z,9.44
2022-11-22T20:14:17.066Z,9.32
2022-11-22T20:16:45.327Z,9.24
2022-11-22T20:19:15.386Z,9.10
2022-11-22T20:21:44.733Z,9.20
2022-11-22T20:24:14.070Z,9.13
2022-11-22T20:26:42.571Z,9.08
2022-11-22T20:29:15.101Z,9.24
2022-11-22T20:31:43.520Z,9.16
2022-11-22T20:34:12.123Z,9.26
2022-11-22T20:36:40.354Z,9.20
2022-11-22T20:39:11.010Z,9.24
2022-11-22T20:41:40.866Z,9.15
2022-11-22T20:44:14.498Z,9.17
2022-11-22T20:46:43.426Z,9.15
2022-11-22T20:49:11.979Z,8.95
2022-11-22T20:51:42.678Z,8.88
2022-11-22T20:54:12.009Z,8.92
2022-11-22T20:56:40.210Z,8.96
2022-11-22T20:59:08.520Z,8.71
2022-11-22T21:01:38.534Z,8.99
2022-11-22T21:04:07.334Z,8.83
2022-11-22T21:06:35.707Z,8.93
2022-11-22T21:09:04.530Z,8.90
2022-11-22T21:11:34.606Z,8.93
2022-11-22T21:14:02.802Z,9.01
2022-11-22T21:16:32.026Z,8.93
2022-11-22T21:19:04.923Z,8.72
2022-11-22T21:21:35.938Z,8.93
2022-11-22T21:24:06.373Z,8.81
2022-11-22T21:26:35.456Z,8.98
2022-11-22T21:29:11.539Z,8.69
2022-11-22T21:31:44.056Z,8.71
2022-11-22T21:34:14.098Z,8.82
2022-11-22T21:36:42.276Z,8.97
2022-11-22T21:39:10.766Z,8.73
2022-11-22T21:41:40.661Z,8.98
2022-11-22T21:44:10.524Z,8.88
2022-11-22T21:46:38.872Z,8.94
2022-11-22T21:49:07.584Z,8.95
2022-11-22T21:51:37.120Z,8.86
2022-11-22T21:54:05.886Z,8.88
2022-11-22T21:56:34.478Z,8.93
2022-11-22T21:59:03.852Z,9.02
2022-11-22T22:01:32.891Z,8.97
2022-11-22T22:04:01.372Z,8.94
2022-11-22T22:06:29.601Z,9.12
2022-11-22T22:08:59.444Z,9.19
2022-11-22T22:11:27.685Z,9.15
2022-11-22T22:13:58.089Z,8.95
2022-11-22T22:16:26.571Z,9.08
2022-11-22T22:18:55.088Z,9.12
2022-11-22T22:21:23.404Z,9.17
2022-11-22T22:23:51.850Z,9.22
2022-11-22T22:26:21.554Z,9.16
2022-11-22T22:28:49.702Z,9.26
2022-11-22T22:31:22.053Z,9.17
2022-11-22T22:33:52.900Z,9.10
2022-11-22T22:36:21.866Z,9.23
2022-11-22T22:38:50.710Z,8.92
2022-11-22T22:41:19.600Z,9.16
2022-11-22T22:43:50.268Z,9.07
2022-11-22T22:46:21.635Z,9.32
2022-11-22T22:48:50.888Z,9.08
2022-11-22T22:51:22.923Z,8.89
2022-11-22T22:53:53.769Z,9.06
2022-11-22T22:56:23.099Z,9.13
2022-11-22T22:58:56.752Z,9.21
2022-11-22T23:01:27.140Z,9.20
2022-11-22T23:03:58.820Z,9.22
2022-11-22T23:06:30.567Z,9.38
2022-11-22T23:08:59.461Z,9.34
2022-11-22T23:11:43.920Z,9.12
2022-11-22T23:14:15.388Z,9.38
2022-11-22T23:16:43.608Z,9.27
2022-11-22T23:19:12.106Z,8.93
2022-11-22T23:21:40.525Z,9.08
2022-11-22T23:24:10.181Z,8.91
2022-11-22T23:26:38.929Z,9.05
2022-11-22T23:29:07.143Z,9.17
2022-11-22T23:31:36.659Z,9.14
2022-11-22T23:34:05.565Z,9.20
2022-11-22T23:36:38.965Z,9.26
2022-11-22T23:39:09.026Z,9.09
2022-11-22T23:41:37.286Z,9.39
2022-11-22T23:44:05.967Z,9.22
2022-11-22T23:46:34.232Z,9.16
2022-11-22T23:49:07.155Z,9.00
2022-11-22T23:51:37.104Z,9.10
2022-11-22T23:54:09.339Z,9.33
2022-11-22T23:56:37.738Z,9.39
2022-11-22T23:59:06.533Z,9.21
